Strona główna
METAR-TAF:

METAR-TAF

Lotnisko :

Port lotniczy Mitiga

Trypolis, Libia

Szerokość geograficzna: 32-54N, Długość geograficzna: 13-17E, wysokość: 11 m

Aktualna obserwacja pogody

Raport powstał 1 godzina i 9 minut temu, godzina 10:50 UTC
Wiatr 9 kt od wschodnio-północny wschód
Temperatura 29°C
Wilgotność 48%
Ciśnienie 1015 hPa
Widzialność: 8000 m
Rozproszone chmury na wysokości 18000 ft

METAR: HLLM 161050Z 06009KT 8000 SCT180 29/17 Q1015

czas: 13:59 (11:59 UTC)

Prognoza

Raport powstał 18 godziny i 59 minut temu, godzina 17:00 UTC
Prognoza ważna od 15 godzina 18 UTC do 16 godzina 18 UTC
Wiatr 2 kt z kierunków zmiennych
Widzialność: 8000 m
Stopniowe zmiany
od 16 godzina 02 UTC do 16 godzina 04 UTC
Wiatr 10 kt od południowy wschód

TAF: HLLM 151700Z 1518/1618 VRB02KT 8000 NSC BECMG 1602/1604 14010KT

Obserwacja i prognoza pogody dla ponad 4000 lotnisk (raport METAR i TAF).

Dostępne stacje oznaczono żółtymi i czerwonymi punktami na mapie.

Najedź kursorem aby zobaczyć nazwę stacji.

Kliknij aby zobaczyć obserwacje i prognozy pogody.

Aby zmienić mapę: kliknij na zielony przycisk z czarnym krzyżykiem, aby powiększyć; na zielony przycisk z myślnikiem, aby pomniejszyć; na zielone strzałki, aby przejść do map sąsiednich.


METAR-TAF: